Time;durP1;ratioP1;P1;durP2;ratioP2;P2;SDS_P1;SDS_P2;PMS_P1;PMS_P2;Temp;Humidity;BMP_temperature;BMP_pressure;BME280_temperature;BME280_humidity;BME280_pressure;Samples;Min_cycle;Max_cycle;Signal;HPM_P1;HPM_P2
2021/06/17 00:01:26;;;;;;;0.20;0.20;;;;;;;;;;5054113;28;20040;-86
2021/06/17 00:03:52;;;;;;;0.10;0.10;;;;;;;;;;5037404;28;20533;-85
2021/06/17 00:06:18;;;;;;;0.10;0.10;;;;;;;;;;5053777;28;20047;-86
2021/06/17 00:08:44;;;;;;;0.10;0.10;;;;;;;;;;5055116;28;20049;-86
2021/06/17 00:11:10;;;;;;;0.10;0.10;;;;;;;;;;5055292;28;20047;-87
2021/06/17 00:13:39;;;;;;;0.47;0.30;;;;;;;;;;5053864;28;20110;-86
2021/06/17 00:16:06;;;;;;;0.10;0.10;;;;;;;;;;5037260;28;20046;-85
2021/06/17 00:18:32;;;;;;;0.10;0.10;;;;;;;;;;5053560;28;20067;-86
2021/06/17 00:20:59;;;;;;;0.10;0.10;;;;;;;;;;5037194;28;20041;-86
2021/06/17 00:23:25;;;;;;;0.10;0.10;;;;;;;;;;5053476;28;20033;-86
2021/06/17 00:25:51;;;;;;;0.10;0.10;;;;;;;;;;5053556;28;20032;-84
2021/06/17 00:28:17;;;;;;;0.10;0.10;;;;;;;;;;5053369;28;20043;-85
2021/06/17 00:30:43;;;;;;;0.10;0.10;;;;;;;;;;5053364;28;20059;-85
2021/06/17 00:33:09;;;;;;;0.10;0.10;;;;;;;;;;5053453;28;20363;-86
2021/06/17 00:35:36;;;;;;;0.10;0.10;;;;;;;;;;5053404;28;20052;-86
2021/06/17 00:38:02;;;;;;;0.13;0.13;;;;;;;;;;5036560;28;20041;-86
2021/06/17 00:40:28;;;;;;;0.10;0.10;;;;;;;;;;5053358;28;20398;-85
2021/06/17 00:42:54;;;;;;;0.10;0.10;;;;;;;;;;5053393;28;20137;-86
2021/06/17 00:45:27;;;;;;;0.10;0.10;;;;;;;;;;5051845;28;20037;-86
2021/06/17 00:47:53;;;;;;;0.10;0.10;;;;;;;;;;5053007;28;20045;-85
2021/06/17 00:50:20;;;;;;;0.10;0.10;;;;;;;;;;5053117;28;20078;-86
2021/06/17 00:52:46;;;;;;;0.10;0.10;;;;;;;;;;5053179;28;20068;-85
2021/06/17 00:55:12;;;;;;;0.15;0.15;;;;;;;;;;5053137;28;20040;-86
2021/06/17 00:57:39;;;;;;;0.10;0.10;;;;;;;;;;5036531;28;20041;-86
2021/06/17 01:00:06;;;;;;;0.20;0.20;;;;;;;;;;5036316;28;20075;-86
2021/06/17 01:02:32;;;;;;;0.10;0.10;;;;;;;;;;5054082;28;20040;-86
2021/06/17 01:04:58;;;;;;;0.10;0.10;;;;;;;;;;5054069;28;20540;-86
2021/06/17 01:07:29;;;;;;;0.10;0.10;;;;;;;;;;5036177;28;20094;-85
2021/06/17 01:10:05;;;;;;;0.10;0.10;;;;;;;;;;5052819;28;20540;-85
2021/06/17 01:12:50;;;;;;;0.10;0.10;;;;;;;;;;5036840;28;20040;-87
2021/06/17 01:15:20;;;;;;;0.20;0.20;;;;;;;;;;5052832;28;20041;-86
2021/06/17 01:17:56;;;;;;;0.10;0.10;;;;;;;;;;5052666;28;20453;-86
2021/06/17 01:20:24;;;;;;;0.10;0.10;;;;;;;;;;5052598;28;20033;-88
2021/06/17 01:22:50;;;;;;;0.10;0.10;;;;;;;;;;5054069;28;20037;-92
2021/06/17 01:25:19;;;;;;;0.10;0.10;;;;;;;;;;5052708;28;20037;-87
2021/06/17 01:28:05;;;;;;;0.10;0.10;;;;;;;;;;5053640;28;20115;-86
2021/06/17 01:30:32;;;;;;;0.13;0.13;;;;;;;;;;5052168;28;20080;-86
2021/06/17 01:33:01;;;;;;;0.10;0.10;;;;;;;;;;5052286;28;20037;-85
2021/06/17 01:35:27;;;;;;;0.10;0.10;;;;;;;;;;5035668;28;20087;-85
2021/06/17 01:37:54;;;;;;;0.20;0.20;;;;;;;;;;5053313;28;20041;-86
2021/06/17 01:40:20;;;;;;;0.10;0.10;;;;;;;;;;5035804;28;20109;-86
2021/06/17 01:42:46;;;;;;;0.10;0.10;;;;;;;;;;5035711;28;20037;-86
2021/06/17 01:45:12;;;;;;;0.10;0.10;;;;;;;;;;5052055;28;20040;-86
2021/06/17 01:47:38;;;;;;;0.10;0.10;;;;;;;;;;5051862;28;20041;-86
2021/06/17 01:50:05;;;;;;;0.30;0.30;;;;;;;;;;5053131;28;20417;-86
2021/06/17 01:52:31;;;;;;;0.10;0.10;;;;;;;;;;5053247;28;20037;-86
2021/06/17 01:54:58;;;;;;;0.10;0.10;;;;;;;;;;5052760;28;20029;-85
2021/06/17 01:57:24;;;;;;;0.10;0.10;;;;;;;;;;5035267;28;20166;-86
2021/06/17 01:59:50;;;;;;;0.10;0.10;;;;;;;;;;5035383;28;20502;-86
2021/06/17 02:02:16;;;;;;;0.10;0.10;;;;;;;;;;5035118;28;20475;-85
2021/06/17 02:04:46;;;;;;;0.10;0.10;;;;;;;;;;5051799;28;20039;-85
2021/06/17 02:07:12;;;;;;;0.10;0.10;;;;;;;;;;5035143;28;20577;-86
2021/06/17 02:09:38;;;;;;;0.30;0.30;;;;;;;;;;5035052;28;20068;-86
2021/06/17 02:12:04;;;;;;;0.10;0.10;;;;;;;;;;5051600;28;20126;-86
2021/06/17 02:14:30;;;;;;;0.20;0.20;;;;;;;;;;5051692;28;20040;-86
2021/06/17 02:16:58;;;;;;;0.10;0.10;;;;;;;;;;5051450;28;20483;-86
2021/06/17 02:19:26;;;;;;;0.10;0.10;;;;;;;;;;5035150;28;20033;-87
2021/06/17 02:21:53;;;;;;;0.10;0.10;;;;;;;;;;5035400;28;20040;-87
2021/06/17 02:24:19;;;;;;;0.10;0.10;;;;;;;;;;5051389;28;20041;-85
2021/06/17 02:26:45;;;;;;;0.10;0.10;;;;;;;;;;5034698;28;20037;-86
2021/06/17 02:29:13;;;;;;;0.10;0.10;;;;;;;;;;5051204;28;20045;-85
2021/06/17 02:31:42;;;;;;;0.10;0.10;;;;;;;;;;5051183;28;20083;-87
2021/06/17 02:34:09;;;;;;;0.10;0.10;;;;;;;;;;5034826;28;20041;-87
2021/06/17 02:36:35;;;;;;;0.13;0.13;;;;;;;;;;5034547;28;20032;-86
2021/06/17 02:39:01;;;;;;;0.10;0.10;;;;;;;;;;5051346;28;20094;-86
2021/06/17 02:41:27;;;;;;;0.10;0.10;;;;;;;;;;5034660;28;20037;-86
2021/06/17 02:43:54;;;;;;;0.10;0.10;;;;;;;;;;5051282;28;20494;-86
2021/06/17 02:46:21;;;;;;;0.10;0.10;;;;;;;;;;5051165;28;20482;-86
2021/06/17 02:48:47;;;;;;;0.10;0.10;;;;;;;;;;5051035;28;20072;-86
2021/06/17 02:51:13;;;;;;;0.20;0.20;;;;;;;;;;5034559;28;20118;-87
2021/06/17 02:53:39;;;;;;;0.10;0.10;;;;;;;;;;5051054;28;20569;-86
2021/06/17 02:56:12;;;;;;;0.10;0.10;;;;;;;;;;5051055;28;20112;-86
2021/06/17 02:58:56;;;;;;;0.10;0.10;;;;;;;;;;5034305;28;20049;-86
2021/06/17 03:01:27;;;;;;;0.10;0.10;;;;;;;;;;5051001;28;20126;-86
2021/06/17 03:03:54;;;;;;;0.20;0.20;;;;;;;;;;5052202;28;20037;-86
2021/06/17 03:06:25;;;;;;;0.10;0.10;;;;;;;;;;5050845;28;20143;-86
2021/06/17 03:08:51;;;;;;;0.20;0.20;;;;;;;;;;5037747;28;20172;-85
2021/06/17 03:11:17;;;;;;;0.10;0.10;;;;;;;;;;5054990;28;20052;-85
2021/06/17 03:13:44;;;;;;;0.38;0.38;;;;;;;;;;5055052;28;20029;-85
2021/06/17 03:16:11;;;;;;;0.10;0.10;;;;;;;;;;5054864;28;20037;-85
2021/06/17 03:18:37;;;;;;;0.20;0.20;;;;;;;;;;5056094;28;20044;-85
2021/06/17 03:21:03;;;;;;;0.10;0.10;;;;;;;;;;5038322;28;20044;-86
2021/06/17 03:23:30;;;;;;;0.20;0.20;;;;;;;;;;5038246;28;20127;-86
2021/06/17 03:25:57;;;;;;;0.10;0.10;;;;;;;;;;5054762;28;20075;-86
2021/06/17 03:28:23;;;;;;;0.10;0.10;;;;;;;;;;5038283;28;20057;-86
2021/06/17 03:30:49;;;;;;;0.30;0.30;;;;;;;;;;5037948;28;20510;-86
2021/06/17 03:33:17;;;;;;;0.13;0.13;;;;;;;;;;5054487;28;20041;-86
2021/06/17 03:35:43;;;;;;;0.20;0.20;;;;;;;;;;5054590;28;20041;-86
2021/06/17 03:38:09;;;;;;;0.10;0.10;;;;;;;;;;5037913;28;20405;-86
2021/06/17 03:40:35;;;;;;;0.10;0.10;;;;;;;;;;5054549;28;20116;-86
2021/06/17 03:43:01;;;;;;;0.10;0.10;;;;;;;;;;5038065;28;20045;-86
2021/06/17 03:45:28;;;;;;;0.20;0.20;;;;;;;;;;5054389;28;20037;-86
2021/06/17 03:47:54;;;;;;;0.10;0.10;;;;;;;;;;5054228;28;20041;-86
2021/06/17 03:50:21;;;;;;;0.10;0.10;;;;;;;;;;5054227;28;20157;-86
2021/06/17 03:52:47;;;;;;;0.10;0.10;;;;;;;;;;5037577;28;20044;-85
2021/06/17 03:55:17;;;;;;;0.10;0.10;;;;;;;;;;5037921;28;20406;-85
2021/06/17 03:57:43;;;;;;;0.10;0.10;;;;;;;;;;5055264;28;20040;-85
2021/06/17 04:00:09;;;;;;;0.10;0.10;;;;;;;;;;5055365;28;20093;-85
2021/06/17 04:02:35;;;;;;;0.20;0.20;;;;;;;;;;5054107;28;20119;-86
2021/06/17 04:05:02;;;;;;;0.20;0.20;;;;;;;;;;5037508;28;20065;-86
2021/06/17 04:07:28;;;;;;;0.10;0.10;;;;;;;;;;5037455;28;20098;-85
2021/06/17 04:09:56;;;;;;;0.10;0.10;;;;;;;;;;5053894;28;20428;-86
2021/06/17 04:12:23;;;;;;;0.20;0.20;;;;;;;;;;5054007;28;20479;-86
2021/06/17 04:14:49;;;;;;;0.10;0.10;;;;;;;;;;5053893;28;20115;-86
2021/06/17 04:17:17;;;;;;;0.10;0.10;;;;;;;;;;5053687;28;20032;-85
2021/06/17 04:19:44;;;;;;;0.30;0.30;;;;;;;;;;5036934;28;20045;-85
2021/06/17 04:22:10;;;;;;;0.10;0.10;;;;;;;;;;5053784;28;20064;-86
2021/06/17 04:24:38;;;;;;;0.10;0.10;;;;;;;;;;5053761;28;20423;-86
2021/06/17 04:27:04;;;;;;;0.10;0.10;;;;;;;;;;5037387;28;20037;-86
2021/06/17 04:29:33;;;;;;;0.15;0.15;;;;;;;;;;5053600;28;20124;-85
2021/06/17 04:31:59;;;;;;;0.10;0.10;;;;;;;;;;5037458;28;20504;-86
2021/06/17 04:34:26;;;;;;;0.10;0.10;;;;;;;;;;5053590;28;20087;-86
2021/06/17 04:36:52;;;;;;;0.20;0.20;;;;;;;;;;5053555;28;20240;-86
2021/06/17 04:39:18;;;;;;;0.20;0.20;;;;;;;;;;5036980;28;20442;-86
2021/06/17 04:41:45;;;;;;;0.40;0.40;;;;;;;;;;5053554;28;20033;-86
2021/06/17 04:44:11;;;;;;;0.10;0.10;;;;;;;;;;5054640;28;20040;-86
2021/06/17 04:46:37;;;;;;;0.10;0.10;;;;;;;;;;5036860;28;20059;-87
2021/06/17 04:49:03;;;;;;;0.20;0.20;;;;;;;;;;5036568;28;20037;-86
2021/06/17 04:51:30;;;;;;;0.15;0.15;;;;;;;;;;5054543;28;20397;-87
2021/06/17 04:53:56;;;;;;;0.17;0.17;;;;;;;;;;5036821;28;20065;-86
2021/06/17 04:56:23;;;;;;;0.28;0.28;;;;;;;;;;5036621;28;20041;-86
2021/06/17 04:58:50;;;;;;;0.10;0.10;;;;;;;;;;5053128;28;20071;-86
2021/06/17 05:01:19;;;;;;;0.10;0.10;;;;;;;;;;5052987;28;20362;-86
2021/06/17 05:03:46;;;;;;;0.13;0.13;;;;;;;;;;5052923;28;20409;-85
2021/06/17 05:06:13;;;;;;;0.22;0.20;;;;;;;;;;5052949;28;20106;-85
2021/06/17 05:11:25;;;;;;;0.20;0.20;;;;;;;;;;5053115;28;20102;-86
2021/06/17 05:13:51;;;;;;;0.73;0.73;;;;;;;;;;5036309;28;20473;-85
2021/06/17 05:16:17;;;;;;;0.10;0.10;;;;;;;;;;5052501;28;20398;-86
2021/06/17 05:18:43;;;;;;;0.30;0.30;;;;;;;;;;5052704;28;20490;-86
2021/06/17 05:21:10;;;;;;;0.20;0.20;;;;;;;;;;5052699;28;20110;-86
2021/06/17 05:23:39;;;;;;;0.10;0.10;;;;;;;;;;5053772;28;20044;-86
2021/06/17 05:26:06;;;;;;;0.13;0.13;;;;;;;;;;5053057;28;20036;-85
2021/06/17 05:28:32;;;;;;;0.22;0.22;;;;;;;;;;5052370;28;20041;-85
2021/06/17 05:31:00;;;;;;;0.10;0.10;;;;;;;;;;5051523;28;20053;-85
2021/06/17 05:33:28;;;;;;;0.38;0.38;;;;;;;;;;5036292;28;20072;-85
2021/06/17 05:35:54;;;;;;;0.52;0.52;;;;;;;;;;5052427;28;20037;-85
2021/06/17 05:38:20;;;;;;;0.20;0.20;;;;;;;;;;5035754;28;20421;-96
2021/06/17 05:40:49;;;;;;;0.30;0.30;;;;;;;;;;5021014;28;20075;-85
2021/06/17 05:43:15;;;;;;;0.20;0.20;;;;;;;;;;5052126;28;20040;-84
2021/06/17 05:45:43;;;;;;;0.30;0.30;;;;;;;;;;5053458;28;20479;-85
2021/06/17 05:48:09;;;;;;;0.20;0.20;;;;;;;;;;5052094;28;20486;-86
2021/06/17 05:50:35;;;;;;;0.43;0.43;;;;;;;;;;5052292;28;20041;-84
2021/06/17 05:53:01;;;;;;;0.10;0.10;;;;;;;;;;5052224;28;20048;-84
2021/06/17 05:55:27;;;;;;;0.15;0.15;;;;;;;;;;5052041;28;20037;-85
2021/06/17 05:57:53;;;;;;;0.15;0.15;;;;;;;;;;5051813;28;20065;-85
2021/06/17 06:00:19;;;;;;;0.50;0.28;;;;;;;;;;5051895;28;20033;-86
2021/06/17 06:02:46;;;;;;;0.30;0.30;;;;;;;;;;5053131;28;20043;-86
2021/06/17 06:05:13;;;;;;;0.20;0.20;;;;;;;;;;5051838;28;20040;-86
2021/06/17 06:07:39;;;;;;;0.10;0.10;;;;;;;;;;5052763;28;20135;-85
2021/06/17 06:10:06;;;;;;;0.20;0.20;;;;;;;;;;5052926;28;20037;-84
2021/06/17 06:12:32;;;;;;;0.15;0.15;;;;;;;;;;5051656;28;20041;-88
2021/06/17 06:14:58;;;;;;;0.20;0.20;;;;;;;;;;5052810;28;20395;-88
2021/06/17 06:17:24;;;;;;;0.10;0.10;;;;;;;;;;5034937;28;20536;-88
2021/06/17 06:19:51;;;;;;;0.10;0.10;;;;;;;;;;5051531;28;20083;-88
2021/06/17 06:22:18;;;;;;;0.32;0.32;;;;;;;;;;5051687;28;20076;-88
2021/06/17 06:24:44;;;;;;;0.20;0.20;;;;;;;;;;5051507;28;20073;-87
2021/06/17 06:27:12;;;;;;;0.20;0.20;;;;;;;;;;5052548;28;20068;-91
2021/06/17 06:29:39;;;;;;;0.20;0.20;;;;;;;;;;5035469;28;20075;-92
2021/06/17 06:32:05;;;;;;;0.17;0.17;;;;;;;;;;5035258;28;20094;-92
2021/06/17 06:34:31;;;;;;;0.28;0.20;;;;;;;;;;5052085;28;20043;-94
2021/06/17 06:36:57;;;;;;;0.20;0.20;;;;;;;;;;5019078;28;20543;-92
2021/06/17 06:39:23;;;;;;;0.10;0.10;;;;;;;;;;5035165;28;20493;-92
2021/06/17 06:41:51;;;;;;;0.20;0.20;;;;;;;;;;5034725;28;20037;-91
2021/06/17 06:44:17;;;;;;;0.10;0.10;;;;;;;;;;5051271;28;20163;-89
2021/06/17 06:46:43;;;;;;;0.20;0.20;;;;;;;;;;5035046;28;20040;-92
2021/06/17 06:49:09;;;;;;;0.30;0.30;;;;;;;;;;5035469;28;20060;-92
2021/06/17 06:51:38;;;;;;;0.20;0.20;;;;;;;;;;5034812;28;20079;-92
2021/06/17 06:54:05;;;;;;;0.57;0.57;;;;;;;;;;5052436;28;20037;-90
2021/06/17 06:56:31;;;;;;;0.20;0.20;;;;;;;;;;5034702;28;20167;-90
2021/06/17 06:58:57;;;;;;;0.20;0.20;;;;;;;;;;5034181;28;20048;-91
2021/06/17 07:01:23;;;;;;;0.20;0.20;;;;;;;;;;5018144;28;20489;-91
2021/06/17 07:03:49;;;;;;;0.20;0.20;;;;;;;;;;5050943;28;20041;-91
2021/06/17 07:06:15;;;;;;;0.20;0.20;;;;;;;;;;5034047;28;20433;-91
2021/06/17 07:08:41;;;;;;;0.20;0.20;;;;;;;;;;5051844;28;20117;-90
2021/06/17 07:11:07;;;;;;;0.30;0.25;;;;;;;;;;5052028;28;20472;-91
2021/06/17 07:13:33;;;;;;;0.30;0.30;;;;;;;;;;5050908;28;20037;-91
2021/06/17 07:15:59;;;;;;;0.20;0.20;;;;;;;;;;5050626;28;20124;-88
2021/06/17 07:18:25;;;;;;;0.30;0.30;;;;;;;;;;5050494;28;20072;-89
2021/06/17 07:20:51;;;;;;;0.20;0.20;;;;;;;;;;5050704;28;20041;-91
2021/06/17 07:23:20;;;;;;;0.30;0.30;;;;;;;;;;5050434;28;20041;-89
2021/06/17 07:25:46;;;;;;;0.20;0.20;;;;;;;;;;5033974;28;20037;-89
2021/06/17 07:28:12;;;;;;;0.20;0.20;;;;;;;;;;5050480;28;20041;-88
2021/06/17 07:30:38;;;;;;;0.20;0.20;;;;;;;;;;5051595;28;20053;-88
2021/06/17 07:33:04;;;;;;;0.20;0.20;;;;;;;;;;5052467;28;20104;-90
2021/06/17 07:35:30;;;;;;;0.20;0.20;;;;;;;;;;5069921;28;20111;-90
2021/06/17 07:37:56;;;;;;;0.20;0.20;;;;;;;;;;5069645;28;20047;-89
2021/06/17 07:40:22;;;;;;;0.25;0.25;;;;;;;;;;5071643;28;20037;-89
2021/06/17 07:42:48;;;;;;;0.20;0.20;;;;;;;;;;5050145;28;20064;-93
2021/06/17 07:45:14;;;;;;;0.28;0.28;;;;;;;;;;5050996;28;20474;-93
2021/06/17 07:47:41;;;;;;;0.20;0.20;;;;;;;;;;5034061;28;20037;-90
2021/06/17 07:50:07;;;;;;;0.20;0.20;;;;;;;;;;5069634;28;20082;-89
2021/06/17 07:52:33;;;;;;;0.20;0.20;;;;;;;;;;5071437;28;20177;-87
2021/06/17 07:54:59;;;;;;;0.20;0.20;;;;;;;;;;5056824;28;20040;-87
2021/06/17 07:57:25;;;;;;;0.20;0.20;;;;;;;;;;5057260;28;20084;-87
2021/06/17 07:59:53;;;;;;;0.20;0.20;;;;;;;;;;5073920;28;20040;-87
2021/06/17 08:02:19;;;;;;;0.20;0.20;;;;;;;;;;5074005;28;20037;-86
2021/06/17 08:04:45;;;;;;;0.20;0.20;;;;;;;;;;5073849;28;20090;-87
2021/06/17 08:07:11;;;;;;;0.20;0.20;;;;;;;;;;5074908;28;20064;-86
2021/06/17 08:09:37;;;;;;;0.20;0.20;;;;;;;;;;5057116;28;20044;-86
2021/06/17 08:12:03;;;;;;;0.20;0.20;;;;;;;;;;5073744;28;20559;-87
2021/06/17 08:14:29;;;;;;;0.20;0.20;;;;;;;;;;5040239;28;20152;-87
2021/06/17 08:16:56;;;;;;;0.20;0.20;;;;;;;;;;5073749;28;20070;-87
2021/06/17 08:19:32;;;;;;;0.30;0.30;;;;;;;;;;5073538;28;20072;-86
2021/06/17 08:21:58;;;;;;;0.20;0.20;;;;;;;;;;5058468;28;20043;-87
2021/06/17 08:24:26;;;;;;;0.20;0.20;;;;;;;;;;5074691;28;20040;-87
2021/06/17 08:26:52;;;;;;;0.20;0.20;;;;;;;;;;5073520;28;20485;-87
2021/06/17 08:29:18;;;;;;;0.20;0.20;;;;;;;;;;5073504;28;20040;-87
2021/06/17 08:31:44;;;;;;;0.20;0.20;;;;;;;;;;5056689;28;20056;-89
2021/06/17 08:34:11;;;;;;;0.30;0.30;;;;;;;;;;5073846;28;20064;-88
2021/06/17 08:36:37;;;;;;;0.30;0.30;;;;;;;;;;5074523;28;20064;-89
2021/06/17 08:39:04;;;;;;;0.43;0.43;;;;;;;;;;5056963;28;20135;-90
2021/06/17 08:41:31;;;;;;;0.30;0.30;;;;;;;;;;5074447;28;20037;-89
2021/06/17 08:43:57;;;;;;;0.28;0.28;;;;;;;;;;5056825;28;20405;-89
2021/06/17 08:46:24;;;;;;;0.40;0.40;;;;;;;;;;5056454;28;20098;-88
2021/06/17 08:48:50;;;;;;;0.30;0.30;;;;;;;;;;5056199;28;20052;-88
2021/06/17 08:51:16;;;;;;;0.32;0.32;;;;;;;;;;5073073;28;20067;-89
2021/06/17 08:53:42;;;;;;;0.25;0.25;;;;;;;;;;5073170;28;20078;-88
2021/06/17 08:56:08;;;;;;;0.30;0.30;;;;;;;;;;5073159;28;20040;-88
2021/06/17 08:58:34;;;;;;;0.32;0.32;;;;;;;;;;5074277;28;20369;-89
2021/06/17 09:01:00;;;;;;;0.40;0.40;;;;;;;;;;5073084;28;20060;-89
2021/06/17 09:03:26;;;;;;;0.52;0.38;;;;;;;;;;5056141;28;20422;-89
2021/06/17 09:05:54;;;;;;;0.45;0.45;;;;;;;;;;5055207;28;20048;-87
2021/06/17 09:08:24;;;;;;;0.30;0.30;;;;;;;;;;5072808;28;20447;-88
2021/06/17 09:10:50;;;;;;;0.20;0.20;;;;;;;;;;5072961;28;20036;-89
2021/06/17 09:13:16;;;;;;;0.30;0.30;;;;;;;;;;5072796;28;20631;-89
2021/06/17 09:15:43;;;;;;;0.30;0.30;;;;;;;;;;5072710;28;20405;-87
2021/06/17 09:18:10;;;;;;;0.20;0.20;;;;;;;;;;5072227;28;20464;-88
2021/06/17 09:20:36;;;;;;;0.30;0.30;;;;;;;;;;5072570;28;20033;-89
2021/06/17 09:23:21;;;;;;;0.30;0.30;;;;;;;;;;5072565;28;20058;-89
2021/06/17 09:26:01;;;;;;;0.40;0.40;;;;;;;;;;5072943;28;20063;-88
2021/06/17 09:28:46;;;;;;;0.47;0.47;;;;;;;;;;5072480;28;20036;-89
2021/06/17 09:31:13;;;;;;;0.30;0.30;;;;;;;;;;5069644;28;20053;-89
2021/06/17 09:33:42;;;;;;;0.30;0.30;;;;;;;;;;5072765;28;20108;-88
2021/06/17 09:36:09;;;;;;;0.40;0.40;;;;;;;;;;5055764;28;20064;-88
2021/06/17 09:38:42;;;;;;;0.50;0.40;;;;;;;;;;5055993;28;20067;-88
2021/06/17 09:41:08;;;;;;;0.30;0.30;;;;;;;;;;5055428;28;20045;-88
2021/06/17 09:43:38;;;;;;;0.40;0.40;;;;;;;;;;5038967;28;20451;-89
2021/06/17 09:46:06;;;;;;;0.52;0.40;;;;;;;;;;5071967;28;20040;-87
2021/06/17 09:48:38;;;;;;;0.30;0.30;;;;;;;;;;5055393;28;20041;-93
2021/06/17 09:51:22;;;;;;;0.20;0.20;;;;;;;;;;5071879;28;20154;-90
2021/06/17 09:53:48;;;;;;;0.40;0.40;;;;;;;;;;5071830;28;20040;-90
2021/06/17 09:56:15;;;;;;;0.40;0.40;;;;;;;;;;5071687;28;20043;-90
2021/06/17 09:58:44;;;;;;;0.30;0.30;;;;;;;;;;5071784;28;20383;-88
2021/06/17 10:01:15;;;;;;;0.30;0.30;;;;;;;;;;5072750;28;20145;-90
2021/06/17 10:03:42;;;;;;;0.30;0.30;;;;;;;;;;5055749;28;20115;-89
2021/06/17 10:06:17;;;;;;;0.50;0.50;;;;;;;;;;5071578;28;20135;-90
2021/06/17 10:08:43;;;;;;;0.30;0.30;;;;;;;;;;5071719;28;20051;-89
2021/06/17 10:11:09;;;;;;;0.30;0.30;;;;;;;;;;5071574;28;20119;-89
2021/06/17 10:13:35;;;;;;;0.30;0.30;;;;;;;;;;5071664;28;20107;-91
2021/06/17 10:16:01;;;;;;;0.28;0.28;;;;;;;;;;5071542;28;20032;-89
2021/06/17 10:18:28;;;;;;;0.30;0.30;;;;;;;;;;5054559;28;20097;-87
2021/06/17 10:20:54;;;;;;;0.20;0.20;;;;;;;;;;5054615;28;20542;-87
2021/06/17 10:23:20;;;;;;;0.30;0.30;;;;;;;;;;5054843;28;20037;-88
2021/06/17 10:25:47;;;;;;;0.30;0.30;;;;;;;;;;5055216;28;20532;-88
2021/06/17 10:28:34;;;;;;;0.30;0.30;;;;;;;;;;5071400;28;20105;-88
2021/06/17 10:31:00;;;;;;;0.30;0.30;;;;;;;;;;5070842;28;20135;-91
2021/06/17 10:33:34;;;;;;;0.47;0.47;;;;;;;;;;5071657;28;20177;-90
2021/06/17 10:36:22;;;;;;;0.30;0.30;;;;;;;;;;5050098;28;20482;-89
2021/06/17 10:39:13;;;;;;;1.75;0.55;;;;;;;;;;5052357;28;20076;-93
2021/06/17 10:41:51;;;;;;;0.30;0.30;;;;;;;;;;5052422;28;20033;-89
2021/06/17 10:44:36;;;;;;;0.30;0.30;;;;;;;;;;5052381;28;20394;-90
2021/06/17 10:47:03;;;;;;;0.68;0.68;;;;;;;;;;5051055;28;20041;-91
2021/06/17 10:49:48;;;;;;;0.40;0.40;;;;;;;;;;5050714;28;20486;-91
2021/06/17 10:52:27;;;;;;;0.30;0.30;;;;;;;;;;5051005;28;20044;-89
2021/06/17 10:54:58;;;;;;;0.30;0.30;;;;;;;;;;5050894;28;20091;-90
2021/06/17 10:57:24;;;;;;;;;;;;;;;;;;5034877;28;20028;-90
2021/06/17 10:59:50;;;;;;;0.30;0.30;;;;;;;;;;5050908;28;19963;-90
2021/06/17 11:02:16;;;;;;;0.30;0.30;;;;;;;;;;5034346;28;20045;-91
2021/06/17 11:04:44;;;;;;;0.30;0.30;;;;;;;;;;5034663;28;20090;-90
2021/06/17 11:07:11;;;;;;;0.30;0.30;;;;;;;;;;5034564;28;20037;-91
2021/06/17 11:09:40;;;;;;;0.30;0.30;;;;;;;;;;5050959;28;20041;-91
2021/06/17 11:12:19;;;;;;;0.30;0.30;;;;;;;;;;5052131;28;20033;-90
2021/06/17 11:14:45;;;;;;;0.28;0.28;;;;;;;;;;5050966;28;20120;-91
2021/06/17 11:17:30;;;;;;;0.30;0.30;;;;;;;;;;5049359;28;20037;-91
2021/06/17 11:19:57;;;;;;;0.40;0.40;;;;;;;;;;5052181;28;20042;-91
2021/06/17 11:22:33;;;;;;;0.25;0.25;;;;;;;;;;5051175;28;20112;-92
2021/06/17 11:25:07;;;;;;;0.30;0.30;;;;;;;;;;5051967;28;20269;-90
2021/06/17 11:27:33;;;;;;;0.20;0.20;;;;;;;;;;5050297;28;20099;-90
2021/06/17 11:30:05;;;;;;;0.30;0.30;;;;;;;;;;5039174;28;20049;-92
2021/06/17 11:32:32;;;;;;;0.20;0.20;;;;;;;;;;5040712;28;20114;-91
2021/06/17 11:34:59;;;;;;;0.20;0.20;;;;;;;;;;5054626;28;20067;-89
2021/06/17 11:37:28;;;;;;;0.30;0.30;;;;;;;;;;5054548;28;20033;-92
2021/06/17 11:39:54;;;;;;;0.30;0.30;;;;;;;;;;5055938;28;20044;-92
2021/06/17 11:42:21;;;;;;;0.40;0.40;;;;;;;;;;5040164;28;20033;-91
2021/06/17 11:44:57;;;;;;;0.28;0.28;;;;;;;;;;5038277;28;20029;-91
2021/06/17 11:47:23;;;;;;;0.30;0.30;;;;;;;;;;5054519;28;20040;-91
2021/06/17 11:49:49;;;;;;;0.55;0.55;;;;;;;;;;5054303;28;20063;-90
2021/06/17 11:52:16;;;;;;;0.20;0.20;;;;;;;;;;5038434;28;20049;-89
2021/06/17 11:54:42;;;;;;;0.90;0.65;;;;;;;;;;5055353;28;20116;-90
2021/06/17 11:57:08;;;;;;;0.28;0.28;;;;;;;;;;5054431;28;20033;-89
2021/06/17 11:59:36;;;;;;;0.28;0.28;;;;;;;;;;5047904;28;20036;-90
2021/06/17 12:02:08;;;;;;;0.30;0.30;;;;;;;;;;5058571;28;20063;-90
2021/06/17 12:04:41;;;;;;;0.20;0.20;;;;;;;;;;5075727;28;20047;-90
2021/06/17 12:07:07;;;;;;;0.25;0.25;;;;;;;;;;5057202;28;20064;-89
2021/06/17 12:09:33;;;;;;;0.20;0.20;;;;;;;;;;5057319;28;20390;-89
2021/06/17 12:12:12;;;;;;;0.40;0.40;;;;;;;;;;5073582;28;20036;-89
2021/06/17 12:14:42;;;;;;;0.20;0.20;;;;;;;;;;5057838;28;20059;-88
2021/06/17 12:17:08;;;;;;;3.65;0.30;;;;;;;;;;5073637;28;20055;-89
2021/06/17 12:19:34;;;;;;;0.40;0.40;;;;;;;;;;5057045;28;20036;-90
2021/06/17 12:22:07;;;;;;;0.20;0.20;;;;;;;;;;5057692;28;20045;-93
2021/06/17 12:24:35;;;;;;;0.22;0.22;;;;;;;;;;5057768;28;20036;-93
2021/06/17 12:27:01;;;;;;;0.93;0.93;;;;;;;;;;5057627;28;20039;-95
2021/06/17 12:29:27;;;;;;;0.20;0.20;;;;;;;;;;5057706;28;20041;-95
2021/06/17 12:31:55;;;;;;;0.25;0.25;;;;;;;;;;5058044;28;20056;-94
2021/06/17 12:34:21;;;;;;;0.40;0.40;;;;;;;;;;5041301;28;20048;-93
2021/06/17 12:37:01;;;;;;;0.20;0.20;;;;;;;;;;5057340;28;20044;-88
2021/06/17 12:39:27;;;;;;;0.20;0.20;;;;;;;;;;5073230;28;20041;-90
2021/06/17 12:41:53;;;;;;;0.20;0.20;;;;;;;;;;5056639;28;20048;-89
2021/06/17 12:44:39;;;;;;;0.20;0.20;;;;;;;;;;5056557;28;20581;-89
2021/06/17 12:47:10;;;;;;;0.20;0.20;;;;;;;;;;5074336;28;20033;-94
2021/06/17 12:52:27;;;;;;;0.30;0.30;;;;;;;;;;5074193;28;20371;-89
2021/06/17 12:54:53;;;;;;;0.50;0.50;;;;;;;;;;5074177;28;20474;-90
2021/06/17 12:57:20;;;;;;;0.20;0.20;;;;;;;;;;5072873;28;20512;-90
2021/06/17 13:00:03;;;;;;;0.30;0.30;;;;;;;;;;5072850;28;20068;-91
2021/06/17 13:02:32;;;;;;;0.30;0.30;;;;;;;;;;5056468;28;20086;-92
2021/06/17 13:05:02;;;;;;;0.30;0.30;;;;;;;;;;5073053;28;20072;-91
2021/06/17 13:07:28;;;;;;;0.20;0.20;;;;;;;;;;5073127;28;20036;-91
2021/06/17 13:10:09;;;;;;;0.28;0.28;;;;;;;;;;5072998;28;20040;-91
2021/06/17 13:12:36;;;;;;;0.20;0.20;;;;;;;;;;5073034;28;20032;-91
2021/06/17 13:15:09;;;;;;;0.30;0.30;;;;;;;;;;5056419;28;20041;-91
2021/06/17 13:17:38;;;;;;;0.20;0.20;;;;;;;;;;5056158;28;20106;-92
2021/06/17 13:20:07;;;;;;;0.30;0.30;;;;;;;;;;5072861;28;20386;-94
2021/06/17 13:22:46;;;;;;;0.20;0.20;;;;;;;;;;5040413;28;20036;-92
2021/06/17 13:25:12;;;;;;;0.30;0.30;;;;;;;;;;5072570;28;20040;-90
2021/06/17 13:27:39;;;;;;;0.30;0.30;;;;;;;;;;5072484;28;20037;-90
2021/06/17 13:30:05;;;;;;;0.20;0.20;;;;;;;;;;5072109;28;20061;-92
2021/06/17 13:32:33;;;;;;;0.40;0.40;;;;;;;;;;5056767;28;20090;-94
2021/06/17 13:34:59;;;;;;;0.45;0.45;;;;;;;;;;5039696;28;20136;-91
2021/06/17 13:37:25;;;;;;;0.25;0.25;;;;;;;;;;5057216;28;20048;-89
2021/06/17 13:39:51;;;;;;;0.20;0.20;;;;;;;;;;5072061;28;20047;-89
2021/06/17 13:42:18;;;;;;;0.30;0.30;;;;;;;;;;5055394;28;20037;-89
2021/06/17 13:44:47;;;;;;;0.45;0.43;;;;;;;;;;5072022;28;20035;-90
2021/06/17 13:47:14;;;;;;;0.30;0.30;;;;;;;;;;5055618;28;20090;-88
2021/06/17 13:49:41;;;;;;;0.20;0.20;;;;;;;;;;5071877;28;20113;-88
2021/06/17 13:52:07;;;;;;;0.30;0.30;;;;;;;;;;5071394;28;20029;-88
2021/06/17 13:54:33;;;;;;;0.30;0.30;;;;;;;;;;5071843;28;20473;-88
2021/06/17 13:56:59;;;;;;;0.40;0.40;;;;;;;;;;5071845;28;20048;-88
2021/06/17 13:59:25;;;;;;;0.25;0.25;;;;;;;;;;5071826;28;20040;-87
2021/06/17 14:01:51;;;;;;;0.20;0.20;;;;;;;;;;5054999;28;20041;-87
2021/06/17 14:04:17;;;;;;;0.40;0.40;;;;;;;;;;5055144;28;20032;-88
2021/06/17 14:06:46;;;;;;;0.20;0.20;;;;;;;;;;5071413;28;20043;-88
2021/06/17 14:09:12;;;;;;;0.20;0.20;;;;;;;;;;5054861;28;20497;-87
2021/06/17 14:11:39;;;;;;;0.30;0.30;;;;;;;;;;5071403;28;20367;-87
2021/06/17 14:14:05;;;;;;;0.30;0.30;;;;;;;;;;5054736;28;20036;-87
2021/06/17 14:16:32;;;;;;;0.30;0.30;;;;;;;;;;5072610;28;20036;-88
2021/06/17 14:18:59;;;;;;;0.20;0.20;;;;;;;;;;5055057;28;20036;-88
2021/06/17 14:21:24;;;;;;;0.20;0.20;;;;;;;;;;5071338;28;20039;-88
2021/06/17 14:23:50;;;;;;;0.20;0.20;;;;;;;;;;5071255;28;20032;-88
2021/06/17 14:26:16;;;;;;;0.25;0.25;;;;;;;;;;5071038;28;20051;-87
2021/06/17 14:28:42;;;;;;;0.95;0.32;;;;;;;;;;5070947;28;20080;-88
2021/06/17 14:31:10;;;;;;;0.38;0.25;;;;;;;;;;5054349;28;20498;-88
2021/06/17 14:33:38;;;;;;;0.30;0.30;;;;;;;;;;5071179;28;20493;-88
2021/06/17 14:36:04;;;;;;;0.30;0.30;;;;;;;;;;5070995;28;20123;-87
2021/06/17 14:38:30;;;;;;;0.30;0.30;;;;;;;;;;5071223;28;20044;-87
2021/06/17 14:40:57;;;;;;;0.20;0.20;;;;;;;;;;5054460;28;20512;-87
2021/06/17 14:43:23;;;;;;;0.30;0.30;;;;;;;;;;5070929;28;20339;-87
2021/06/17 14:45:49;;;;;;;0.38;0.38;;;;;;;;;;5054225;28;20040;-87
2021/06/17 14:48:17;;;;;;;0.20;0.20;;;;;;;;;;5070804;28;20132;-87
2021/06/17 14:50:43;;;;;;;0.20;0.20;;;;;;;;;;5070936;28;20094;-87
2021/06/17 14:53:09;;;;;;;0.20;0.20;;;;;;;;;;5070835;28;20115;-87